Time;durP1;ratioP1;P1;durP2;ratioP2;P2;SDS_P1;SDS_P2;PMS_P1;PMS_P2;Temp;Humidity;BMP_temperature;BMP_pressure;BME280_temperature;BME280_humidity;BME280_pressure;Samples;Min_cycle;Max_cycle;Signal;HPM_P1;HPM_P2
2021/05/29 00:00:02;;;;;;;12.88;9.90;;;;;;;16.81;94.00;100029.75;1756934;80;21013;-42
2021/05/29 00:02:29;;;;;;;14.05;10.53;;;;;;;16.81;94.16;100028.91;1757531;80;20998;-41
2021/05/29 00:04:56;;;;;;;13.78;11.65;;;;;;;16.81;94.33;100030.25;1756629;80;21022;-44
2021/05/29 00:07:24;;;;;;;14.05;11.05;;;;;;;16.83;94.53;100030.47;1757598;80;21024;-42
2021/05/29 00:09:51;;;;;;;13.60;11.22;;;;;;;16.84;94.53;100028.11;1756094;80;21537;-40
2021/05/29 00:12:18;;;;;;;13.90;10.90;;;;;;;16.82;94.49;100025.20;1754697;80;21596;-41
2021/05/29 00:14:48;;;;;;;12.63;11.00;;;;;;;16.81;94.67;100023.02;1756037;80;22054;-45
2021/05/29 00:17:18;;;;;;;11.50;10.30;;;;;;;16.81;94.72;100022.17;1753775;80;21640;-43
2021/05/29 00:19:45;;;;;;;36.42;31.02;;;;;;;16.82;94.75;100026.55;1745672;81;21564;-41
2021/05/29 00:22:11;;;;;;;36.28;24.37;;;;;;;16.84;94.89;100026.77;1747229;80;21010;-40
2021/05/29 00:24:38;;;;;;;16.17;14.47;;;;;;;16.86;94.83;100025.30;1745242;80;21001;-41
2021/05/29 00:27:06;;;;;;;14.70;13.20;;;;;;;16.89;94.93;100022.81;1756146;80;21005;-39
2021/05/29 00:29:32;;;;;;;12.90;10.72;;;;;;;16.90;94.94;100025.34;1752393;80;20969;-42
2021/05/29 00:31:59;;;;;;;17.23;12.20;;;;;;;16.89;94.85;100016.09;1756229;80;21005;-39
2021/05/29 00:34:25;;;;;;;15.08;11.88;;;;;;;16.85;94.82;100014.15;1754400;80;20998;-42
2021/05/29 00:36:52;;;;;;;13.95;12.58;;;;;;;16.81;94.88;100014.09;1753808;80;21666;-43
2021/05/29 00:39:18;;;;;;;12.78;11.48;;;;;;;16.80;95.01;100011.03;1755181;80;21017;-45
2021/05/29 00:41:45;;;;;;;13.53;12.15;;;;;;;16.80;95.06;100006.99;1755617;80;20996;-42
2021/05/29 00:44:15;;;;;;;14.05;12.65;;;;;;;16.80;95.02;100006.99;1755186;80;21024;-43
2021/05/29 00:46:42;;;;;;;12.65;11.45;;;;;;;16.79;95.05;100004.80;1753533;80;21009;-45
2021/05/29 00:49:09;;;;;;;12.58;11.35;;;;;;;16.78;95.12;100009.84;1756510;80;20982;-46
2021/05/29 00:51:37;;;;;;;13.22;11.93;;;;;;;16.79;95.19;100006.66;1758031;80;21069;-44
2021/05/29 00:54:05;;;;;;;12.37;11.18;;;;;;;16.80;95.29;100000.27;1757252;80;21029;-41
2021/05/29 00:56:32;;;;;;;18.42;12.00;;;;;;;16.80;95.45;99993.53;1755305;80;21013;-41
2021/05/29 00:59:02;;;;;;;12.75;11.45;;;;;;;16.82;95.60;99988.36;1754021;80;21528;-43
2021/05/29 01:01:29;;;;;;;12.88;11.57;;;;;;;16.85;95.62;99998.00;1755638;80;21990;-44
2021/05/29 01:03:55;;;;;;;17.27;14.93;;;;;;;16.86;95.64;99988.45;1757659;80;21005;-44
2021/05/29 01:06:22;;;;;;;18.35;16.60;;;;;;;16.87;95.53;99984.75;1755117;80;21011;-43
2021/05/29 01:08:48;;;;;;;15.23;13.72;;;;;;;16.86;95.38;99985.75;1756131;80;20998;-43
2021/05/29 01:11:17;;;;;;;14.13;12.53;;;;;;;16.87;95.26;99982.55;1754983;80;21057;-43
2021/05/29 01:13:43;;;;;;;14.23;12.15;;;;;;;16.85;95.29;99985.37;1749876;80;21005;-41
2021/05/29 01:16:30;;;;;;;13.85;12.40;;;;;;;16.85;95.49;99977.80;1746799;80;21525;-42
2021/05/29 01:18:40;;;;;;;13.10;11.80;;;;;;;16.84;95.64;99981.50;1744809;80;22026;-43
2021/05/29 01:21:07;;;;;;;13.95;12.58;;;;;;;16.85;95.78;99980.50;1743751;80;21018;-43
2021/05/29 01:23:33;;;;;;;14.10;12.40;;;;;;;16.87;95.95;99980.70;1747031;80;21032;-43
2021/05/29 01:26:00;;;;;;;13.35;12.03;;;;;;;16.90;96.07;99979.57;1751548;80;21348;-44
2021/05/29 01:28:29;;;;;;;17.07;15.38;;;;;;;16.91;96.08;99978.59;1752640;80;21017;-42
2021/05/29 01:31:02;;;;;;;19.12;17.12;;;;;;;16.94;95.97;99972.08;1753912;80;21005;-42
2021/05/29 01:33:33;;;;;;;21.77;19.60;;;;;;;16.96;95.97;99966.02;1753900;80;21041;-42
2021/05/29 01:36:04;;;;;;;18.40;16.37;;;;;;;16.97;95.96;99967.24;1756977;80;20973;-42
2021/05/29 01:38:33;;;;;;;17.77;14.80;;;;;;;17.00;95.94;99962.06;1753892;80;21356;-43
2021/05/29 01:41:11;;;;;;;15.95;14.28;;;;;;;16.99;95.83;99957.19;1753108;80;21542;-43
2021/05/29 01:43:40;;;;;;;16.67;14.18;;;;;;;16.97;95.65;99950.24;1754690;80;20973;-43
2021/05/29 01:46:08;;;;;;;18.02;16.20;;;;;;;16.92;95.64;99949.32;1753463;80;21016;-44
2021/05/29 01:48:43;;;;;;;17.87;15.98;;;;;;;16.90;95.69;99956.69;1754082;80;20954;-39
2021/05/29 01:51:08;;;;;;;18.70;16.73;;;;;;;16.87;95.76;99960.52;1756568;80;21468;-42
2021/05/29 01:53:34;;;;;;;18.37;16.35;;;;;;;16.84;95.81;99959.45;1756330;80;21033;-42
2021/05/29 01:56:01;;;;;;;18.60;16.70;;;;;;;16.83;95.92;99960.94;1751623;80;21017;-43
2021/05/29 01:58:28;;;;;;;19.45;17.15;;;;;;;16.81;96.12;99954.37;1757437;80;20983;-42
2021/05/29 02:00:55;;;;;;;20.95;17.98;;;;;;;16.82;96.32;99961.94;1754242;80;21002;-44
2021/05/29 02:03:22;;;;;;;18.50;16.52;;;;;;;16.82;96.38;99965.98;1757281;80;20985;-44
2021/05/29 02:05:49;;;;;;;18.87;16.55;;;;;;;16.82;96.57;99969.52;1756243;80;21056;-41
2021/05/29 02:08:15;;;;;;;19.73;15.25;;;;;;;16.80;96.41;99967.45;1755864;80;21021;-40
2021/05/29 02:10:45;;;;;;;16.45;14.73;;;;;;;16.78;96.44;99971.28;1753752;80;21044;-39
2021/05/29 02:13:23;;;;;;;17.70;15.98;;;;;;;16.76;96.44;99968.72;1749449;80;21001;-40
2021/05/29 02:15:50;;;;;;;16.87;15.13;;;;;;;16.76;96.41;99963.33;1755048;80;20961;-41
2021/05/29 02:18:17;;;;;;;16.12;14.43;;;;;;;16.75;96.45;99962.12;1757036;80;21833;-42
2021/05/29 02:21:05;;;;;;;16.02;14.40;;;;;;;16.75;96.52;99961.61;1757301;80;21532;-41
2021/05/29 02:23:38;;;;;;;16.17;14.38;;;;;;;16.75;96.67;99957.58;1755905;80;21017;-41
2021/05/29 02:26:08;;;;;;;16.70;14.73;;;;;;;16.75;96.77;99956.23;1758853;80;21012;-44
2021/05/29 02:28:35;;;;;;;16.42;14.55;;;;;;;16.75;96.91;99954.88;1755585;80;20994;-45
2021/05/29 02:31:03;;;;;;;15.58;14.00;;;;;;;16.76;97.08;99961.98;1755013;80;20981;-42
2021/05/29 02:33:30;;;;;;;14.07;12.50;;;;;;;16.78;97.33;99970.81;1758085;80;20985;-46
2021/05/29 02:36:00;;;;;;;15.50;13.85;;;;;;;16.81;97.38;99965.64;1757753;80;21065;-45
2021/05/29 02:38:27;;;;;;;16.80;13.85;;;;;;;16.81;97.37;99967.83;1756035;80;21049;-46
2021/05/29 02:40:55;;;;;;;14.38;12.88;;;;;;;16.83;97.49;99967.20;1753067;80;21115;-44
2021/05/29 02:43:22;;;;;;;15.00;13.43;;;;;;;16.85;97.63;99966.53;1757322;80;21057;-45
2021/05/29 02:45:50;;;;;;;15.10;13.55;;;;;;;16.85;97.58;99962.99;1756719;80;21021;-45
2021/05/29 02:48:17;;;;;;;13.85;12.25;;;;;;;16.85;97.63;99967.88;1756645;80;21029;-47
2021/05/29 02:50:44;;;;;;;17.30;14.20;;;;;;;16.85;97.60;99960.30;1753399;80;21004;-46
2021/05/29 02:53:13;;;;;;;15.00;13.40;;;;;;;16.86;97.67;99965.56;1752413;80;21536;-47
2021/05/29 02:55:40;;;;;;;13.78;12.28;;;;;;;16.86;97.67;99961.52;1753749;80;21509;-45
2021/05/29 02:58:06;;;;;;;15.25;13.15;;;;;;;16.86;97.82;99956.13;1754696;80;21328;-48
2021/05/29 03:00:40;;;;;;;13.78;11.65;;;;;;;16.88;97.85;99961.36;1745652;80;21013;-49
2021/05/29 03:03:15;;;;;;;14.55;12.13;;;;;;;16.89;97.99;99953.66;1754584;80;21847;-50
2021/05/29 03:05:47;;;;;;;15.38;11.83;;;;;;;16.87;97.96;99951.09;1745522;80;21037;-49
2021/05/29 03:08:17;;;;;;;14.45;12.95;;;;;;;16.91;98.14;99953.48;1746640;80;21069;-48
2021/05/29 03:10:45;;;;;;;14.28;11.30;;;;;;;16.93;98.21;99945.63;1756037;80;21022;-48
2021/05/29 03:13:11;;;;;;;12.50;11.20;;;;;;;16.97;98.18;99939.47;1746390;80;21516;-48
2021/05/29 03:15:38;;;;;;;12.00;10.75;;;;;;;16.98;98.02;99938.46;1753475;80;21485;-49
2021/05/29 03:18:05;;;;;;;11.53;10.05;;;;;;;16.96;97.88;99932.37;1756992;80;21073;-48
2021/05/29 03:20:32;;;;;;;11.25;9.85;;;;;;;16.99;97.83;99942.88;1757166;80;21001;-47
2021/05/29 03:22:59;;;;;;;13.03;10.63;;;;;;;16.99;97.87;99937.48;1752984;80;21037;-49
2021/05/29 03:25:26;;;;;;;11.43;10.23;;;;;;;16.98;97.81;99946.03;1755763;80;20985;-45
2021/05/29 03:27:53;;;;;;;12.10;10.35;;;;;;;16.98;97.94;99946.54;1753180;80;21524;-45
2021/05/29 03:30:23;;;;;;;10.98;8.83;;;;;;;16.98;98.01;99945.20;1755955;80;21285;-46
2021/05/29 03:32:50;;;;;;;12.75;9.15;;;;;;;16.97;97.96;99944.35;1754570;80;21045;-47
2021/05/29 03:35:16;;;;;;;10.90;9.78;;;;;;;16.99;97.85;99941.53;1749559;80;20993;-48
2021/05/29 03:37:43;;;;;;;11.30;9.83;;;;;;;16.98;97.91;99944.69;1745879;80;21611;-47
2021/05/29 03:40:11;;;;;;;10.43;9.33;;;;;;;16.97;98.23;99947.05;1756749;80;21022;-49
2021/05/29 03:42:38;;;;;;;11.55;9.50;;;;;;;16.95;98.48;99950.38;1753694;80;21001;-48
2021/05/29 03:45:08;;;;;;;8.73;7.83;;;;;;;16.95;98.79;99946.84;1756768;80;21350;-50
2021/05/29 03:47:34;;;;;;;10.85;9.85;;;;;;;16.94;99.16;99947.34;1756762;81;20982;-47
2021/05/29 03:50:01;;;;;;;8.28;7.28;;;;;;;16.95;99.40;99946.33;1756391;80;20954;-47
2021/05/29 03:52:28;;;;;;;9.95;8.10;;;;;;;16.95;99.55;99949.02;1746601;80;21034;-48
2021/05/29 03:54:54;;;;;;;12.15;10.88;;;;;;;16.97;99.71;99948.39;1753373;80;21364;-48
2021/05/29 03:57:21;;;;;;;8.98;8.05;;;;;;;17.00;99.79;99947.25;1757212;80;20985;-44
2021/05/29 03:59:48;;;;;;;9.10;8.13;;;;;;;17.02;99.94;99950.16;1756506;80;20985;-47
2021/05/29 04:02:14;;;;;;;11.03;8.58;;;;;;;17.08;100.00;99958.15;1757861;80;21061;-48
2021/05/29 04:04:41;;;;;;;8.28;7.42;;;;;;;17.12;100.00;99954.69;1748910;80;21009;-48
2021/05/29 04:07:09;;;;;;;11.73;10.50;;;;;;;17.16;100.00;99954.73;1754079;80;20989;-47
2021/05/29 04:09:36;;;;;;;11.38;9.18;;;;;;;17.18;100.00;99958.98;1752606;80;21014;-48
2021/05/29 04:12:03;;;;;;;10.18;7.97;;;;;;;17.22;100.00;99960.41;1749827;80;21544;-47
2021/05/29 04:14:30;;;;;;;8.60;6.92;;;;;;;17.23;100.00;99959.90;1746813;80;21497;-47
2021/05/29 04:16:57;;;;;;;11.22;8.03;;;;;;;17.24;100.00;99965.66;1751386;80;20990;-48
2021/05/29 04:19:24;;;;;;;8.48;7.58;;;;;;;17.25;100.00;99965.49;1750847;80;20985;-44
2021/05/29 04:21:51;;;;;;;9.50;8.50;;;;;;;17.27;100.00;99966.70;1749695;81;20974;-43
2021/05/29 04:24:17;;;;;;;9.03;7.70;;;;;;;17.26;100.00;99968.56;1747352;80;20967;-46
2021/05/29 04:26:46;;;;;;;8.50;7.67;;;;;;;17.28;100.00;99965.70;1751077;81;20985;-46
2021/05/29 04:29:12;;;;;;;8.38;7.47;;;;;;;17.27;100.00;99965.36;1752954;80;21537;-44
2021/05/29 04:31:38;;;;;;;9.15;8.28;;;;;;;17.26;100.00;99958.25;1749566;80;21002;-46
2021/05/29 04:34:05;;;;;;;9.10;8.20;;;;;;;17.26;100.00;99965.86;1751996;80;20997;-46
2021/05/29 04:36:31;;;;;;;9.08;7.97;;;;;;;17.25;100.00;99961.95;1716606;82;21563;-44
2021/05/29 04:38:58;;;;;;;10.85;8.23;;;;;;;17.25;100.00;99964.15;1750231;80;21012;-43
2021/05/29 04:41:25;;;;;;;11.33;9.25;;;;;;;17.26;100.00;99963.17;1750683;80;21013;-44
2021/05/29 04:43:52;;;;;;;8.93;7.45;;;;;;;17.24;100.00;99963.81;1747789;80;20982;-51
2021/05/29 04:46:19;;;;;;;10.40;8.48;;;;;;;17.22;100.00;99968.48;1714910;82;21000;-47
2021/05/29 04:48:45;;;;;;;13.13;8.13;;;;;;;17.21;100.00;99969.49;1750322;80;20965;-47
2021/05/29 04:51:13;;;;;;;10.63;8.75;;;;;;;17.22;100.00;99974.38;1751208;81;21006;-47
2021/05/29 04:53:44;;;;;;;9.73;7.83;;;;;;;17.22;100.00;99967.64;1748740;80;21013;-55
2021/05/29 04:56:11;;;;;;;8.45;7.60;;;;;;;17.20;100.00;99965.08;1749931;80;21001;-45
2021/05/29 04:58:38;;;;;;;8.05;7.25;;;;;;;17.20;100.00;99971.81;1749183;80;21537;-45
2021/05/29 05:01:08;;;;;;;7.60;6.90;;;;;;;17.20;100.00;99971.81;1750148;80;20954;-42
2021/05/29 05:03:36;;;;;;;8.63;7.72;;;;;;;17.23;100.00;99968.83;1750969;80;20977;-48
2021/05/29 05:06:03;;;;;;;7.62;6.22;;;;;;;17.24;100.00;99962.46;1749972;80;21025;-42
2021/05/29 05:08:31;;;;;;;9.00;7.10;;;;;;;17.27;100.00;99971.59;1748861;80;20982;-46
2021/05/29 05:10:59;;;;;;;7.33;6.62;;;;;;;17.28;100.00;99971.93;1735325;80;21482;-46
2021/05/29 05:13:29;;;;;;;8.28;7.35;;;;;;;17.30;100.00;99975.34;1735703;80;21089;-45
2021/05/29 05:15:55;;;;;;;7.90;7.10;;;;;;;17.33;100.00;99984.13;1735504;80;21038;-47
2021/05/29 05:18:23;;;;;;;10.80;6.72;;;;;;;17.31;100.00;99980.22;1737044;80;21105;-46
2021/05/29 05:20:50;;;;;;;7.78;7.03;;;;;;;17.26;100.00;99979.81;1736197;80;21350;-46
2021/05/29 05:23:21;;;;;;;6.90;6.08;;;;;;;17.25;100.00;99987.55;1733229;80;21819;-45
2021/05/29 05:25:46;;;;;;;7.03;6.33;;;;;;;17.24;100.00;99988.56;1739151;81;21045;-45
2021/05/29 05:28:12;;;;;;;10.30;5.35;;;;;;;17.20;100.00;99981.75;1732416;80;21463;-45
2021/05/29 05:30:40;;;;;;;5.22;4.30;;;;;;;17.15;100.00;99987.56;1732440;80;21066;-44
2021/05/29 05:33:08;;;;;;;4.05;3.27;;;;;;;17.07;99.59;99985.59;1732701;81;21029;-46
2021/05/29 05:35:35;;;;;;;3.98;2.80;;;;;;;16.95;98.62;99983.19;1733050;80;21037;-42
2021/05/29 05:38:01;;;;;;;2.83;2.47;;;;;;;16.85;98.04;99992.61;1734509;81;21012;-48
2021/05/29 05:40:28;;;;;;;4.53;2.45;;;;;;;16.76;97.43;99998.83;1704355;82;21002;-45
2021/05/29 05:42:54;;;;;;;3.45;2.40;;;;;;;16.62;96.24;99997.39;1704324;82;20973;-47
2021/05/29 05:45:21;;;;;;;3.30;2.47;;;;;;;16.50;95.56;100006.08;1695926;83;21058;-45
2021/05/29 05:47:48;;;;;;;4.08;2.00;;;;;;;16.42;95.81;100005.92;1693725;83;21550;-46
2021/05/29 05:50:15;;;;;;;3.52;2.20;;;;;;;16.36;96.25;100001.95;1697975;83;21034;-46
2021/05/29 05:52:41;;;;;;;5.20;2.15;;;;;;;16.33;96.33;100007.63;1696295;83;21070;-45
2021/05/29 05:55:11;;;;;;;3.17;1.60;;;;;;;16.23;96.64;100003.55;1692131;83;21423;-46
2021/05/29 05:57:39;;;;;;;2.72;1.75;;;;;;;16.17;97.30;100008.12;1695640;83;21374;-45
2021/05/29 06:00:10;;;;;;;5.40;1.90;;;;;;;16.17;97.89;100011.31;1702130;83;21037;-50
2021/05/29 06:02:38;;;;;;;3.62;2.10;;;;;;;16.18;98.85;100015.22;1700883;82;21021;-50
2021/05/29 06:05:05;;;;;;;4.42;2.05;;;;;;;16.18;99.47;100014.38;1703437;82;21025;-43
2021/05/29 06:07:32;;;;;;;3.42;2.47;;;;;;;16.18;99.67;100019.76;1704937;82;22132;-44
2021/05/29 06:09:58;;;;;;;4.37;2.60;;;;;;;16.17;100.00;100023.41;1697526;82;21090;-44
2021/05/29 06:12:24;;;;;;;3.90;2.27;;;;;;;16.13;100.00;100020.16;1694841;83;20986;-44
2021/05/29 06:20:21;;;;;;;3.50;2.80;;;;;;;16.17;100.00;100021.56;1737134;81;21007;-46
2021/05/29 06:22:47;;;;;;;5.05;2.42;;;;;;;16.14;100.00;100024.54;1737305;80;21509;-47
2021/05/29 06:25:15;;;;;;;4.25;1.90;;;;;;;16.13;100.00;100022.85;1739739;80;20993;-48
2021/05/29 06:27:42;;;;;;;4.00;2.15;;;;;;;16.11;100.00;100026.16;1735912;80;21017;-45
2021/05/29 06:30:09;;;;;;;3.58;1.80;;;;;;;16.10;100.00;100028.52;1697954;82;21348;-46
2021/05/29 06:32:36;;;;;;;5.72;1.82;;;;;;;16.10;100.00;100032.55;1740930;80;20963;-43
2021/05/29 06:35:04;;;;;;;2.27;1.65;;;;;;;16.12;99.94;100031.89;1737748;80;21026;-44
2021/05/29 06:37:31;;;;;;;3.45;1.87;;;;;;;16.13;99.18;100037.64;1738428;80;21054;-47
2021/05/29 06:39:58;;;;;;;2.92;1.45;;;;;;;16.10;98.42;100038.39;1735566;80;21050;-47
2021/05/29 06:42:24;;;;;;;1.80;1.60;;;;;;;16.06;97.85;100039.16;1733094;81;21605;-44
2021/05/29 06:44:51;;;;;;;2.77;2.15;;;;;;;16.06;97.21;100034.29;1735215;80;20982;-46
2021/05/29 06:47:19;;;;;;;2.10;1.50;;;;;;;16.02;97.24;100037.72;1706550;82;21026;-47
2021/05/29 06:49:46;;;;;;;2.45;1.50;;;;;;;15.96;96.81;100033.74;1740085;80;20990;-44
2021/05/29 06:52:14;;;;;;;1.70;1.30;;;;;;;15.96;96.84;100037.78;1736371;81;21620;-44
2021/05/29 06:54:52;;;;;;;2.37;1.87;;;;;;;15.97;96.54;100034.59;1733335;80;20966;-42
2021/05/29 06:59:56;;;;;;;1.70;1.12;;;;;;;16.00;96.27;100026.25;1737537;80;21565;-47
2021/05/29 07:02:41;;;;;;;3.10;1.70;;;;;;;16.06;96.37;100032.45;1733872;80;20995;-44
2021/05/29 07:05:11;;;;;;;1.30;1.17;;;;;;;16.11;96.94;100039.61;1704148;82;21084;-42
2021/05/29 07:07:38;;;;;;;2.17;1.50;;;;;;;16.15;97.10;100029.42;1702978;82;21056;-57
2021/05/29 07:10:08;;;;;;;1.55;1.07;;;;;;;16.19;97.09;100042.47;1645867;85;21092;-47
2021/05/29 07:12:34;;;;;;;1.75;1.12;;;;;;;16.23;97.23;100042.56;1709541;82;21010;-48
2021/05/29 07:15:04;;;;;;;3.72;1.20;;;;;;;16.24;96.15;100046.09;1710289;82;21536;-47
2021/05/29 07:17:33;;;;;;;2.20;1.50;;;;;;;16.21;95.17;100045.88;1700541;83;21028;-46
2021/05/29 07:19:59;;;;;;;1.40;1.30;;;;;;;16.17;93.05;100040.39;1708396;82;21150;-48
2021/05/29 07:22:25;;;;;;;3.08;1.32;;;;;;;16.17;92.82;100046.28;1702272;82;21123;-45
2021/05/29 07:24:52;;;;;;;1.90;1.55;;;;;;;16.15;92.22;100049.12;1706745;82;20995;-46
2021/05/29 07:27:18;;;;;;;2.42;1.30;;;;;;;16.15;91.72;100043.74;1708475;83;21057;-53
2021/05/29 07:29:45;;;;;;;2.02;1.70;;;;;;;16.16;91.29;100049.47;1706065;82;21017;-47
2021/05/29 07:32:12;;;;;;;1.98;1.22;;;;;;;16.21;91.79;100042.34;1709192;82;21089;-48
2021/05/29 07:34:38;;;;;;;1.62;1.15;;;;;;;16.27;91.89;100044.97;1704964;81;21085;-47
2021/05/29 07:37:08;;;;;;;2.50;1.30;;;;;;;16.32;91.69;100042.72;1707881;82;21061;-45
2021/05/29 07:39:35;;;;;;;2.22;1.60;;;;;;;16.39;91.91;100050.60;1703779;82;21016;-46
2021/05/29 07:42:02;;;;;;;2.35;1.60;;;;;;;16.46;91.09;100043.69;1718727;82;21540;-43
2021/05/29 07:44:29;;;;;;;3.30;1.45;;;;;;;16.50;90.63;100044.25;1703929;82;21037;-44
2021/05/29 07:46:55;;;;;;;1.72;1.47;;;;;;;16.55;90.89;100044.18;1735147;81;21041;-46
2021/05/29 07:49:22;;;;;;;4.28;2.02;;;;;;;16.63;91.52;100036.29;1732844;80;21430;-42
2021/05/29 07:51:48;;;;;;;3.25;1.40;;;;;;;16.71;91.39;100049.55;1738168;81;20994;-44
2021/05/29 07:54:15;;;;;;;1.90;1.22;;;;;;;16.73;91.74;100040.34;1736421;81;21539;-43
2021/05/29 07:56:41;;;;;;;2.30;1.52;;;;;;;16.73;91.14;100044.38;1732226;80;21014;-43
2021/05/29 07:59:15;;;;;;;4.80;1.45;;;;;;;16.74;90.48;100040.69;1737042;80;21026;-42
2021/05/29 08:01:40;;;;;;;2.30;1.40;;;;;;;16.74;90.00;100038.00;1701196;82;21017;-46
2021/05/29 08:04:06;;;;;;;1.80;1.30;;;;;;;16.76;89.87;100040.56;1723973;81;21596;-43
2021/05/29 08:06:38;;;;;;;1.52;1.05;;;;;;;16.80;89.47;100038.80;1734236;81;21014;-42
2021/05/29 08:09:05;;;;;;;3.30;1.65;;;;;;;16.84;89.53;100036.20;1737886;80;21505;-42
2021/05/29 08:11:32;;;;;;;2.87;1.30;;;;;;;16.90;88.26;100044.70;1733803;80;21599;-42
2021/05/29 08:14:00;;;;;;;3.52;1.22;;;;;;;16.91;86.71;100036.49;1742355;80;21046;-41
2021/05/29 08:16:28;;;;;;;3.77;1.72;;;;;;;16.95;87.79;100041.93;1738615;81;21547;-45
2021/05/29 08:18:56;;;;;;;3.45;1.32;;;;;;;17.00;87.15;100052.28;1711997;82;21101;-47
2021/05/29 08:21:23;;;;;;;2.83;1.40;;;;;;;17.00;84.75;100049.09;1706074;82;21021;-44
2021/05/29 08:23:51;;;;;;;1.67;1.12;;;;;;;17.01;84.51;100053.50;1735963;80;21038;-42
2021/05/29 08:26:18;;;;;;;2.00;1.37;;;;;;;16.98;84.44;100062.34;1709054;82;21470;-41
2021/05/29 08:28:45;;;;;;;6.15;1.42;;;;;;;16.96;84.14;100064.32;1732946;80;20986;-44
2021/05/29 08:31:12;;;;;;;1.80;1.27;;;;;;;16.97;84.58;100069.58;1733464;81;21010;-41
2021/05/29 08:33:40;;;;;;;2.75;1.12;;;;;;;16.96;84.56;100062.50;1734645;81;21102;-42
2021/05/29 08:36:07;;;;;;;3.08;1.52;;;;;;;16.95;84.19;100061.28;1729736;81;20999;-43
2021/05/29 08:38:35;;;;;;;3.83;1.72;;;;;;;16.94;83.60;100063.63;1739326;80;21409;-41
2021/05/29 08:41:02;;;;;;;2.75;1.50;;;;;;;16.95;83.74;100071.55;1736336;80;21489;-40
2021/05/29 08:43:29;;;;;;;2.42;1.37;;;;;;;16.91;83.52;100062.55;1733229;80;21010;-43
2021/05/29 08:45:56;;;;;;;1.47;1.15;;;;;;;16.88;81.78;100065.02;1738648;81;21022;-44
2021/05/29 08:48:23;;;;;;;2.55;1.65;;;;;;;16.88;81.75;100071.75;1741749;81;21042;-42
2021/05/29 08:53:34;;;;;;;4.17;1.52;;;;;;;16.95;83.34;100080.13;1733404;80;21046;-43
2021/05/29 08:56:02;;;;;;;3.87;1.50;;;;;;;16.98;82.47;100072.61;1732779;81;21012;-42
2021/05/29 08:58:30;;;;;;;2.40;1.55;;;;;;;17.01;82.86;100066.97;1734656;81;21298;-42
2021/05/29 09:00:59;;;;;;;3.15;1.80;;;;;;;17.08;83.60;100073.50;1734195;81;20999;-44
2021/05/29 09:03:40;;;;;;;2.35;1.82;;;;;;;17.11;82.11;100079.56;1735498;80;20995;-44
2021/05/29 09:06:07;;;;;;;3.40;1.82;;;;;;;17.09;81.05;100077.87;1724626;82;20986;-43
2021/05/29 09:08:34;;;;;;;2.77;1.20;;;;;;;17.08;80.18;100073.50;1738905;81;21049;-42
2021/05/29 09:11:03;;;;;;;5.90;1.67;;;;;;;17.09;80.25;100071.65;1701217;82;21528;-42
2021/05/29 09:13:31;;;;;;;2.17;1.47;;;;;;;17.09;79.70;100077.03;1741551;80;21025;-43
2021/05/29 09:16:03;;;;;;;2.77;1.42;;;;;;;17.09;79.54;100081.08;1750480;80;21052;-43
2021/05/29 09:18:45;;;;;;;2.70;1.60;;;;;;;17.09;80.21;100081.08;1737936;80;21058;-45
2021/05/29 09:21:34;;;;;;;2.27;1.22;;;;;;;17.09;79.87;100085.96;1737960;80;21002;-43
2021/05/29 09:24:15;;;;;;;3.30;1.25;;;;;;;17.08;80.14;100076.19;1706020;82;20985;-43
2021/05/29 09:26:53;;;;;;;1.77;1.62;;;;;;;17.09;79.32;100077.03;1695504;83;20998;-45
2021/05/29 09:29:26;;;;;;;2.27;1.60;;;;;;;17.11;79.17;100082.26;1703618;83;21057;-46
2021/05/29 09:32:02;;;;;;;3.35;1.60;;;;;;;17.13;78.97;100085.67;1704767;82;21045;-42
2021/05/29 09:34:45;;;;;;;3.20;1.85;;;;;;;17.13;78.27;100082.98;1705092;83;20994;-42
2021/05/29 09:37:27;;;;;;;2.42;1.72;;;;;;;17.12;78.23;100085.33;1706907;83;21085;-43
2021/05/29 09:40:00;;;;;;;2.27;1.90;;;;;;;17.13;79.08;100091.91;1698520;82;20997;-42
2021/05/29 09:42:33;;;;;;;2.85;1.82;;;;;;;17.14;78.95;100090.92;1705412;83;21082;-44
2021/05/29 09:45:26;;;;;;;3.60;1.70;;;;;;;17.14;78.14;100090.92;1703682;83;21360;-48
2021/05/29 09:48:17;;;;;;;5.42;2.08;;;;;;;17.17;78.62;100087.95;1701988;83;21036;-47
2021/05/29 09:51:08;;;;;;;3.02;1.50;;;;;;;17.18;78.33;100084.25;1705705;83;21006;-47
2021/05/29 09:53:47;;;;;;;2.63;1.80;;;;;;;17.26;78.16;100083.06;1704404;83;21047;-47
2021/05/29 09:56:43;;;;;;;2.27;1.62;;;;;;;17.26;78.16;100083.06;1737461;80;21478;-45
2021/05/29 09:59:20;;;;;;;2.08;1.50;;;;;;;17.31;78.51;100085.30;1740646;80;21002;-45
2021/05/29 10:01:53;;;;;;;2.42;1.50;;;;;;;17.34;78.47;100090.44;1737337;80;21611;-45
2021/05/29 10:04:36;;;;;;;2.62;1.30;;;;;;;17.37;78.14;100084.75;1737946;80;21018;-44
2021/05/29 10:07:01;;;;;;;5.20;2.50;;;;;;;17.39;78.33;100085.97;1738033;81;21054;-44
2021/05/29 10:09:29;;;;;;;3.10;1.50;;;;;;;17.44;78.37;100090.43;1738674;80;21267;-46
2021/05/29 10:11:56;;;;;;;5.22;1.75;;;;;;;17.48;78.30;100087.28;1737333;81;21005;-45
2021/05/29 10:14:23;;;;;;;3.60;1.60;;;;;;;17.56;77.99;100087.06;1739602;80;21029;-52
2021/05/29 10:16:51;;;;;;;3.42;2.10;;;;;;;17.61;77.27;100090.17;1738798;80;21019;-47
2021/05/29 10:19:21;;;;;;;3.08;2.08;;;;;;;17.67;77.00;100089.62;1739487;80;21090;-46
2021/05/29 10:21:50;;;;;;;1.87;1.32;;;;;;;17.73;78.01;100093.91;1734780;80;20995;-46
2021/05/29 10:24:17;;;;;;;3.37;1.87;;;;;;;17.80;77.82;100094.22;1738262;80;21010;-43
2021/05/29 10:26:44;;;;;;;2.75;1.40;;;;;;;17.82;75.73;100087.34;1743177;81;21524;-44
2021/05/29 10:29:11;;;;;;;2.27;1.37;;;;;;;17.82;75.40;100084.66;1740054;80;21038;-45
2021/05/29 10:31:39;;;;;;;3.25;2.08;;;;;;;17.82;74.30;100088.19;1743942;80;20979;-46
2021/05/29 10:34:07;;;;;;;2.12;1.32;;;;;;;17.77;71.58;100091.80;1706051;82;21056;-48
2021/05/29 10:36:53;;;;;;;2.70;1.32;;;;;;;17.72;71.76;100078.73;1740143;80;21498;-45
2021/05/29 10:39:43;;;;;;;3.05;1.50;;;;;;;17.68;73.36;100084.56;1705882;82;21067;-43
2021/05/29 10:42:09;;;;;;;3.58;1.55;;;;;;;17.70;74.28;100086.62;1734776;81;20983;-44
2021/05/29 10:44:42;;;;;;;3.75;1.62;;;;;;;17.74;75.00;100093.44;1738704;80;21002;-42
2021/05/29 10:47:19;;;;;;;2.92;1.70;;;;;;;17.74;74.30;100096.98;1700696;82;20978;-44
2021/05/29 10:49:57;;;;;;;2.17;1.90;;;;;;;17.73;72.44;100095.77;1736585;80;20994;-44
2021/05/29 10:52:43;;;;;;;2.25;1.10;;;;;;;17.73;73.40;100097.95;1738286;81;21545;-48
2021/05/29 10:55:20;;;;;;;6.75;2.02;;;;;;;17.76;73.05;100090.07;1736472;80;21070;-48
2021/05/29 10:58:05;;;;;;;2.10;1.37;;;;;;;17.78;73.06;100092.64;1704409;82;21536;-46
2021/05/29 11:00:43;;;;;;;2.35;1.60;;;;;;;17.79;72.37;100091.63;1738807;80;21030;-48
2021/05/29 11:03:24;;;;;;;2.08;1.35;;;;;;;17.80;72.79;100098.27;1734287;80;21367;-48
2021/05/29 11:06:00;;;;;;;2.33;1.62;;;;;;;17.84;73.40;100092.95;1706725;82;21587;-44
2021/05/29 11:08:55;;;;;;;3.35;1.47;;;;;;;17.87;72.38;100098.05;1735318;80;21584;-44
2021/05/29 11:11:47;;;;;;;2.70;1.60;;;;;;;17.93;73.09;100100.65;1680460;83;21072;-45
2021/05/29 11:14:23;;;;;;;1.72;1.47;;;;;;;18.02;71.76;100097.08;1738374;80;21037;-46
2021/05/29 11:16:56;;;;;;;1.87;1.20;;;;;;;18.09;69.87;100086.06;1738799;80;21306;-44
2021/05/29 11:19:31;;;;;;;4.45;1.37;;;;;;;18.17;70.68;100090.72;1738327;80;21569;-45
2021/05/29 11:22:17;;;;;;;1.77;1.45;;;;;;;18.25;69.28;100084.07;1740980;80;21501;-46
2021/05/29 11:24:56;;;;;;;1.12;1.00;;;;;;;18.35;67.46;100085.38;1738850;80;21006;-44
2021/05/29 11:27:30;;;;;;;2.55;1.20;;;;;;;18.41;65.28;100080.72;1737951;80;21022;-48
2021/05/29 11:30:14;;;;;;;2.70;1.40;;;;;;;18.42;64.25;100084.27;1735886;80;21478;-43
2021/05/29 11:35:48;;;;;;;1.52;1.07;;;;;;;18.50;67.02;100072.23;1738325;80;21003;-46
2021/05/29 11:38:29;;;;;;;2.80;1.30;;;;;;;18.58;66.34;100083.12;1734103;81;21544;-47
2021/05/29 11:41:11;;;;;;;3.08;1.22;;;;;;;18.65;64.15;100084.23;1738857;80;21025;-48
2021/05/29 11:43:46;;;;;;;1.67;1.32;;;;;;;18.68;62.75;100090.66;1721534;80;21026;-47
2021/05/29 11:46:20;;;;;;;2.30;1.17;;;;;;;18.69;61.94;100087.46;1738905;80;21029;-49